Vinegar Bend, Alabama
Current Conditions -  °F | °C
As of 1:56 AM on Sunday 26 Oct 2014 (Local Time) from KMOB Reporting Station
Clear Clear  
Wind Chill: 14°   Ceiling: Unl
Heat Index: 14°   Visibility: 9mi
Dew Point: 14°   Wind: 5mph
Humidity: 100%   Direction: 310°NW
Pressure: 30.05"   Gusts: NA
Location:  31.26°N, 88.34°W
Report Text: KMOB 260656Z AUTO 31004KT 9SM CLR 14/14 A3005 RMK AO2 SLP174 T01390139
Loading
Personal Weather Stations






























Interactive Weather Map
Tropical Storm Tracking
New forecast layout! Learn more

10-Day Weather Forecast

Advertisements
Track Severe Weather on mobile